Ginga — JJ4054 — position and weather

sailwx.info

Track history (hours):
 
Tides and Currents Weather Stations Pressure Air Temp Water Temp Dewpoint Dewpoint Depression Visibility Wind Speed Wind Dir Waves Ship Positions

Ginga

Last reported at 2018-May-27 00:19 UTC. Time now 2018-May-27 04:58 UTC.
Position N 34°39' E 135°09'.

Length 28 m; draft 1.6 m.

Type: Other ship. MMSI: 431301704.

Date/timePositionNaut miles runAvg speedWind from/ knotsBaromVisibWave heightAir tempDewpointWater temp
2018-May-27 00:19N 34°39' E 135°09'3 9.0
2018-May-27 00:00N 34°38' E 135°07'815.1
2018-May-26 23:30N 34°37' E 134°57'5 9.3
2018-May-26 23:00N 34°37' E 135°03'5 9.3
2018-May-26 22:30N 34°35' E 135°08'4 8.0
2018-May-26 22:00N 34°39' E 135°09'0 0.0
2018-May-26 21:30N 34°39' E 135°09'0 0.0
2018-May-25 09:05N 34°39' E 135°09'0 4.9
2018-May-25 09:00N 34°39' E 135°10'815.3
2018-May-25 08:30N 34°32' E 135°07'917.5
2018-May-25 08:00N 34°24' E 135°03'917.6
2018-May-25 07:30N 34°16' E 134°58'510.7
2018-May-25 07:01N 34°21' E 134°60'611.9
2018-May-25 06:30N 34°25' E 135°05'612.9
2018-May-25 06:00N 34°28' E 135°12'612.1
2018-May-25 05:30N 34°32' E 135°18'510.3
2018-May-25 05:00N 34°33' E 135°24'1 2.4
2018-May-25 04:25N 34°33' E 135°25'2 4.4
2018-May-25 03:59N 34°34' E 135°23'816.2
2018-May-25 03:30N 34°37' E 135°14'5 9.3
2018-May-25 03:00N 34°39' E 135°09'0 0.0
2018-May-24 03:31N 34°39' E 135°09'0 1.1
2018-May-24 03:30N 34°39' E 135°09'611.7
2018-May-24 03:00N 34°36' E 135°16'813.1
2018-May-24 02:22N 34°33' E 135°25'1 1.4
2018-May-24 01:59N 34°33' E 135°25'5 7.1
2018-May-24 01:17N 34°33' E 135°19'3 9.9
2018-May-24 01:00N 34°31' E 135°16'612.8
2018-May-24 00:30N 34°27' E 135°11'612.7
2018-May-24 00:00N 34°23' E 135°05'714.2
2018-May-23 23:31N 34°17' E 134°59'612.2
2018-May-23 23:00N 34°11' E 134°60'1 1.1
2018-May-23 22:30N 34°11' E 135°00'714.8
2018-May-23 22:00N 34°18' E 134°58'4 8.3
2018-May-23 21:31N 34°21' E 134°54'0 0.0
2018-May-23 09:37N 34°21' E 134°54'1 7.6
2018-May-23 09:31N 34°21' E 134°55'5 9.7
2018-May-23 09:00N 34°17' E 134°58'713.9
2018-May-23 08:30N 34°23' E 135°02'714.1
2018-May-23 08:00N 34°27' E 135°09'814.7
2018-May-23 07:29N 34°31' E 135°17'510.7
2018-May-23 07:00N 34°33' E 135°22'1 1.6
2018-May-23 06:16N 34°34' E 135°24'0 1.1
2018-May-23 05:51N 34°34' E 135°23'514.6
2018-May-23 05:30N 34°36' E 135°18'713.8
2018-May-23 04:59N 34°39' E 135°10'0 0.0
2018-May-22 02:03N 34°39' E 135°10'0 8.2
2018-May-22 02:00N 34°39' E 135°10'1 2.6
2018-May-22 01:30N 34°40' E 135°11'713.4
2018-May-22 01:00N 34°36' E 135°18'611.0
2018-May-22 00:27N 34°34' E 135°24'4 7.5
2018-May-21 23:58N 34°33' E 135°20'4 9.6
2018-May-21 23:30N 34°31' E 135°16'612.5
2018-May-21 23:00N 34°27' E 135°10'612.3
2018-May-21 22:30N 34°22' E 135°05'611.8
2018-May-21 22:00N 34°18' E 134°60'611.6
2018-May-21 21:29N 34°12' E 134°59'1 1.9
2018-May-21 21:00N 34°11' E 134°59'815.4
2018-May-21 20:31N 34°19' E 134°59'714.9
2018-May-21 20:00N 34°26' E 135°02'815.1
2018-May-21 19:30N 34°33' E 135°06'714.4
2018-May-21 19:00N 34°39' E 135°10'0 0.9
2018-May-21 18:30N 34°39' E 135°09'0 0.0
2018-May-20 07:29N 34°39' E 135°10'713.2
2018-May-20 06:58N 34°36' E 135°03'5 6.8
2018-May-20 06:17N 34°37' E 134°57'414.7
2018-May-20 06:01N 34°38' E 135°02'1 0.2
2018-May-20 03:27N 34°38' E 135°03'4 2.9
2018-May-20 02:05N 34°38' E 134°58'114.2
2018-May-20 02:00N 34°38' E 134°60'3 0.9
2018-May-19 22:36N 34°38' E 135°03'312.9
2018-May-19 22:24N 34°38' E 135°00'1 2.6
2018-May-19 21:58N 34°37' E 135°01'4 8.9
2018-May-19 21:28N 34°35' E 135°06'3 5.9
2018-May-19 21:00N 34°36' E 135°09'3 6.2
2018-May-19 20:30N 34°39' E 135°09'0 0.0
2018-May-17 21:12N 34°39' E 135°09'1 5.1
2018-May-17 21:00N 34°38' E 135°09'815.5
2018-May-17 20:29N 34°38' E 134°59'1 1.0
2018-May-17 19:57N 34°37' E 134°59'4 8.2
2018-May-17 19:30N 34°36' E 135°03'4 9.1
2018-May-17 19:00N 34°34' E 135°08'5 9.7
2018-May-17 18:29N 34°37' E 135°03'0 0.0
2018-May-17 10:20N 34°38' E 135°03'2 6.6
2018-May-17 09:59N 34°35' E 135°04'5 5.9
2018-May-17 09:04N 34°37' E 134°57'210.9
2018-May-17 08:53N 34°38' E 134°60'  
Track history (hours):
 
Tides and Currents Weather Stations Pressure Air Temp Water Temp Dewpoint Dewpoint Depression Visibility Wind Speed Wind Dir Waves Ship Positions

Ginga

Last reported at 2018-May-27 00:19 UTC. Time now 2018-May-27 04:58 UTC.
Position N 34°39' E 135°09'.

Length 28 m; draft 1.6 m.

Type: Other ship. MMSI: 431301704.

Date/timePositionNaut miles runAvg speedWind from/ knotsBaromVisibWave heightAir tempDewpointWater temp
2018-May-27 00:19N 34°39' E 135°09'3 9.0
2018-May-27 00:00N 34°38' E 135°07'815.1
2018-May-26 23:30N 34°37' E 134°57'5 9.3
2018-May-26 23:00N 34°37' E 135°03'5 9.3
2018-May-26 22:30N 34°35' E 135°08'4 8.0
2018-May-26 22:00N 34°39' E 135°09'0 0.0
2018-May-26 21:30N 34°39' E 135°09'0 0.0
2018-May-25 09:05N 34°39' E 135°09'0 4.9
2018-May-25 09:00N 34°39' E 135°10'815.3
2018-May-25 08:30N 34°32' E 135°07'917.5
2018-May-25 08:00N 34°24' E 135°03'917.6
2018-May-25 07:30N 34°16' E 134°58'510.7
2018-May-25 07:01N 34°21' E 134°60'611.9
2018-May-25 06:30N 34°25' E 135°05'612.9
2018-May-25 06:00N 34°28' E 135°12'612.1
2018-May-25 05:30N 34°32' E 135°18'510.3
2018-May-25 05:00N 34°33' E 135°24'1 2.4
2018-May-25 04:25N 34°33' E 135°25'2 4.4
2018-May-25 03:59N 34°34' E 135°23'816.2
2018-May-25 03:30N 34°37' E 135°14'5 9.3
2018-May-25 03:00N 34°39' E 135°09'0 0.0
2018-May-24 03:31N 34°39' E 135°09'0 1.1
2018-May-24 03:30N 34°39' E 135°09'611.7
2018-May-24 03:00N 34°36' E 135°16'813.1
2018-May-24 02:22N 34°33' E 135°25'1 1.4
2018-May-24 01:59N 34°33' E 135°25'5 7.1
2018-May-24 01:17N 34°33' E 135°19'3 9.9
2018-May-24 01:00N 34°31' E 135°16'612.8
2018-May-24 00:30N 34°27' E 135°11'612.7
2018-May-24 00:00N 34°23' E 135°05'714.2
2018-May-23 23:31N 34°17' E 134°59'612.2
2018-May-23 23:00N 34°11' E 134°60'1 1.1
2018-May-23 22:30N 34°11' E 135°00'714.8
2018-May-23 22:00N 34°18' E 134°58'4 8.3
2018-May-23 21:31N 34°21' E 134°54'0 0.0
2018-May-23 09:37N 34°21' E 134°54'1 7.6
2018-May-23 09:31N 34°21' E 134°55'5 9.7
2018-May-23 09:00N 34°17' E 134°58'713.9
2018-May-23 08:30N 34°23' E 135°02'714.1
2018-May-23 08:00N 34°27' E 135°09'814.7
2018-May-23 07:29N 34°31' E 135°17'510.7
2018-May-23 07:00N 34°33' E 135°22'1 1.6
2018-May-23 06:16N 34°34' E 135°24'0 1.1
2018-May-23 05:51N 34°34' E 135°23'514.6
2018-May-23 05:30N 34°36' E 135°18'713.8
2018-May-23 04:59N 34°39' E 135°10'0 0.0
2018-May-22 02:03N 34°39' E 135°10'0 8.2
2018-May-22 02:00N 34°39' E 135°10'1 2.6
2018-May-22 01:30N 34°40' E 135°11'713.4
2018-May-22 01:00N 34°36' E 135°18'611.0
2018-May-22 00:27N 34°34' E 135°24'4 7.5
2018-May-21 23:58N 34°33' E 135°20'4 9.6
2018-May-21 23:30N 34°31' E 135°16'612.5
2018-May-21 23:00N 34°27' E 135°10'612.3
2018-May-21 22:30N 34°22' E 135°05'611.8
2018-May-21 22:00N 34°18' E 134°60'611.6
2018-May-21 21:29N 34°12' E 134°59'1 1.9
2018-May-21 21:00N 34°11' E 134°59'815.4
2018-May-21 20:31N 34°19' E 134°59'714.9
2018-May-21 20:00N 34°26' E 135°02'815.1
2018-May-21 19:30N 34°33' E 135°06'714.4
2018-May-21 19:00N 34°39' E 135°10'0 0.9
2018-May-21 18:30N 34°39' E 135°09'0 0.0
2018-May-20 07:29N 34°39' E 135°10'713.2
2018-May-20 06:58N 34°36' E 135°03'5 6.8
2018-May-20 06:17N 34°37' E 134°57'414.7
2018-May-20 06:01N 34°38' E 135°02'1 0.2
2018-May-20 03:27N 34°38' E 135°03'4 2.9
2018-May-20 02:05N 34°38' E 134°58'114.2
2018-May-20 02:00N 34°38' E 134°60'3 0.9
2018-May-19 22:36N 34°38' E 135°03'312.9
2018-May-19 22:24N 34°38' E 135°00'1 2.6
2018-May-19 21:58N 34°37' E 135°01'4 8.9
2018-May-19 21:28N 34°35' E 135°06'3 5.9
2018-May-19 21:00N 34°36' E 135°09'3 6.2
2018-May-19 20:30N 34°39' E 135°09'0 0.0
2018-May-17 21:12N 34°39' E 135°09'1 5.1
2018-May-17 21:00N 34°38' E 135°09'815.5
2018-May-17 20:29N 34°38' E 134°59'1 1.0
2018-May-17 19:57N 34°37' E 134°59'4 8.2
2018-May-17 19:30N 34°36' E 135°03'4 9.1
2018-May-17 19:00N 34°34' E 135°08'5 9.7
2018-May-17 18:29N 34°37' E 135°03'0 0.0
2018-May-17 10:20N 34°38' E 135°03'2 6.6
2018-May-17 09:59N 34°35' E 135°04'5 5.9
2018-May-17 09:04N 34°37' E 134°57'210.9
2018-May-17 08:53N 34°38' E 134°60'  

Dump ship's entire track history